sensor_id;sensor_type;location;lat;lon;timestamp;temperature;humidity
7240;DHT22;3661;53.288;10.458;2023-04-24T00:01:07;13.60;99.90
7240;DHT22;3661;53.288;10.458;2023-04-24T00:03:40;13.60;99.90
7240;DHT22;3661;53.288;10.458;2023-04-24T00:06:12;13.50;99.90
7240;DHT22;3661;53.288;10.458;2023-04-24T00:08:48;13.50;99.90
7240;DHT22;3661;53.288;10.458;2023-04-24T00:11:23;13.50;99.90
7240;DHT22;3661;53.288;10.458;2023-04-24T00:13:55;13.50;99.90
7240;DHT22;3661;53.288;10.458;2023-04-24T00:16:31;13.50;99.90
7240;DHT22;3661;53.288;10.458;2023-04-24T00:19:03;13.50;99.90
7240;DHT22;3661;53.288;10.458;2023-04-24T00:21:36;13.50;99.90
7240;DHT22;3661;53.288;10.458;2023-04-24T00:24:08;13.40;99.90
7240;DHT22;3661;53.288;10.458;2023-04-24T00:26:41;13.40;99.90
7240;DHT22;3661;53.288;10.458;2023-04-24T00:29:13;13.40;99.90
7240;DHT22;3661;53.288;10.458;2023-04-24T00:31:46;13.40;99.90
7240;DHT22;3661;53.288;10.458;2023-04-24T00:34:22;13.40;99.90
7240;DHT22;3661;53.288;10.458;2023-04-24T00:36:58;13.40;99.90
7240;DHT22;3661;53.288;10.458;2023-04-24T00:39:30;13.30;99.90
7240;DHT22;3661;53.288;10.458;2023-04-24T00:42:04;13.30;99.90
7240;DHT22;3661;53.288;10.458;2023-04-24T00:44:37;13.30;99.90
7240;DHT22;3661;53.288;10.458;2023-04-24T00:47:13;13.20;99.90
7240;DHT22;3661;53.288;10.458;2023-04-24T00:49:45;13.20;99.90
7240;DHT22;3661;53.288;10.458;2023-04-24T00:52:18;13.20;99.90
7240;DHT22;3661;53.288;10.458;2023-04-24T00:54:51;13.20;99.90
7240;DHT22;3661;53.288;10.458;2023-04-24T00:57:23;13.10;99.90
7240;DHT22;3661;53.288;10.458;2023-04-24T00:59:56;13.10;99.90
7240;DHT22;3661;53.288;10.458;2023-04-24T01:02:31;13.10;99.90
7240;DHT22;3661;53.288;10.458;2023-04-24T01:05:05;13.10;99.90
7240;DHT22;3661;53.288;10.458;2023-04-24T01:07:38;13.10;99.90
7240;DHT22;3661;53.288;10.458;2023-04-24T01:10:11;13.10;99.90
7240;DHT22;3661;53.288;10.458;2023-04-24T01:12:46;13.10;99.90
7240;DHT22;3661;53.288;10.458;2023-04-24T01:15:20;13.00;99.90
7240;DHT22;3661;53.288;10.458;2023-04-24T01:17:54;13.00;99.90
7240;DHT22;3661;53.288;10.458;2023-04-24T01:20:26;13.00;99.90
7240;DHT22;3661;53.288;10.458;2023-04-24T01:23:00;13.00;99.90
7240;DHT22;3661;53.288;10.458;2023-04-24T01:25:33;13.00;99.90
7240;DHT22;3661;53.288;10.458;2023-04-24T01:28:06;13.00;99.90
7240;DHT22;3661;53.288;10.458;2023-04-24T01:30:38;13.00;99.90
7240;DHT22;3661;53.288;10.458;2023-04-24T01:33:10;12.90;99.90
7240;DHT22;3661;53.288;10.458;2023-04-24T01:35:42;13.00;99.90
7240;DHT22;3661;53.288;10.458;2023-04-24T01:38:24;12.90;99.90
7240;DHT22;3661;53.288;10.458;2023-04-24T01:40:57;12.90;99.90
7240;DHT22;3661;53.288;10.458;2023-04-24T01:43:32;12.90;99.90
7240;DHT22;3661;53.288;10.458;2023-04-24T01:46:10;12.80;99.90
7240;DHT22;3661;53.288;10.458;2023-04-24T01:48:42;12.80;99.90
7240;DHT22;3661;53.288;10.458;2023-04-24T01:51:14;12.80;99.90
7240;DHT22;3661;53.288;10.458;2023-04-24T01:53:48;12.80;99.90
7240;DHT22;3661;53.288;10.458;2023-04-24T01:56:22;12.70;99.90
7240;DHT22;3661;53.288;10.458;2023-04-24T01:58:56;12.70;99.90
7240;DHT22;3661;53.288;10.458;2023-04-24T02:01:35;12.70;99.90
7240;DHT22;3661;53.288;10.458;2023-04-24T02:04:12;12.70;99.90
7240;DHT22;3661;53.288;10.458;2023-04-24T02:06:46;12.60;99.90
7240;DHT22;3661;53.288;10.458;2023-04-24T02:09:20;12.60;99.90
7240;DHT22;3661;53.288;10.458;2023-04-24T02:11:52;12.60;99.90
7240;DHT22;3661;53.288;10.458;2023-04-24T02:14:24;12.60;99.90
7240;DHT22;3661;53.288;10.458;2023-04-24T02:16:56;12.50;99.90
7240;DHT22;3661;53.288;10.458;2023-04-24T02:19:28;12.50;99.90
7240;DHT22;3661;53.288;10.458;2023-04-24T02:22:00;12.50;99.90
7240;DHT22;3661;53.288;10.458;2023-04-24T02:24:34;12.40;99.90
7240;DHT22;3661;53.288;10.458;2023-04-24T02:27:06;12.40;99.90
7240;DHT22;3661;53.288;10.458;2023-04-24T02:29:38;12.40;99.90
7240;DHT22;3661;53.288;10.458;2023-04-24T02:32:10;12.30;99.90
7240;DHT22;3661;53.288;10.458;2023-04-24T02:34:43;12.30;99.90
7240;DHT22;3661;53.288;10.458;2023-04-24T02:37:15;12.30;99.90
7240;DHT22;3661;53.288;10.458;2023-04-24T02:39:48;12.30;99.90
7240;DHT22;3661;53.288;10.458;2023-04-24T02:42:20;12.30;99.90
7240;DHT22;3661;53.288;10.458;2023-04-24T02:44:52;12.20;99.90
7240;DHT22;3661;53.288;10.458;2023-04-24T02:47:24;12.20;99.90
7240;DHT22;3661;53.288;10.458;2023-04-24T02:49:57;12.20;99.90
7240;DHT22;3661;53.288;10.458;2023-04-24T02:52:36;12.20;99.90
7240;DHT22;3661;53.288;10.458;2023-04-24T02:55:10;12.10;99.90
7240;DHT22;3661;53.288;10.458;2023-04-24T02:57:42;12.10;99.90
7240;DHT22;3661;53.288;10.458;2023-04-24T03:00:14;12.10;99.90
7240;DHT22;3661;53.288;10.458;2023-04-24T03:02:47;12.00;99.90
7240;DHT22;3661;53.288;10.458;2023-04-24T03:05:20;12.00;99.90
7240;DHT22;3661;53.288;10.458;2023-04-24T03:07:52;12.00;99.90
7240;DHT22;3661;53.288;10.458;2023-04-24T03:10:26;11.90;99.90
7240;DHT22;3661;53.288;10.458;2023-04-24T03:12:58;12.00;99.90
7240;DHT22;3661;53.288;10.458;2023-04-24T03:15:30;11.90;99.90
7240;DHT22;3661;53.288;10.458;2023-04-24T03:18:02;11.90;99.90
7240;DHT22;3661;53.288;10.458;2023-04-24T03:20:34;11.90;99.90
7240;DHT22;3661;53.288;10.458;2023-04-24T03:23:08;11.80;99.90
7240;DHT22;3661;53.288;10.458;2023-04-24T03:25:41;11.80;99.90
7240;DHT22;3661;53.288;10.458;2023-04-24T03:28:14;11.80;99.90
7240;DHT22;3661;53.288;10.458;2023-04-24T03:30:46;11.80;99.90
7240;DHT22;3661;53.288;10.458;2023-04-24T03:33:20;11.80;99.90
7240;DHT22;3661;53.288;10.458;2023-04-24T03:35:52;11.70;99.90
7240;DHT22;3661;53.288;10.458;2023-04-24T03:38:28;11.70;99.90
7240;DHT22;3661;53.288;10.458;2023-04-24T03:41:01;11.70;99.90
7240;DHT22;3661;53.288;10.458;2023-04-24T03:43:34;11.60;99.90
7240;DHT22;3661;53.288;10.458;2023-04-24T03:46:07;11.60;99.90
7240;DHT22;3661;53.288;10.458;2023-04-24T03:48:40;11.60;99.90
7240;DHT22;3661;53.288;10.458;2023-04-24T03:51:14;11.60;99.90
7240;DHT22;3661;53.288;10.458;2023-04-24T03:53:46;11.50;99.90
7240;DHT22;3661;53.288;10.458;2023-04-24T03:56:21;11.50;99.90
7240;DHT22;3661;53.288;10.458;2023-04-24T03:58:53;11.50;99.90
7240;DHT22;3661;53.288;10.458;2023-04-24T04:01:25;11.50;99.90
7240;DHT22;3661;53.288;10.458;2023-04-24T04:03:58;11.40;99.90
7240;DHT22;3661;53.288;10.458;2023-04-24T04:06:40;11.40;99.90
7240;DHT22;3661;53.288;10.458;2023-04-24T04:09:13;11.40;99.90
7240;DHT22;3661;53.288;10.458;2023-04-24T04:11:48;11.40;99.90
7240;DHT22;3661;53.288;10.458;2023-04-24T04:14:20;11.30;99.90
7240;DHT22;3661;53.288;10.458;2023-04-24T04:16:52;11.30;99.90
7240;DHT22;3661;53.288;10.458;2023-04-24T04:19:31;11.30;99.90
7240;DHT22;3661;53.288;10.458;2023-04-24T04:22:03;11.30;99.90
7240;DHT22;3661;53.288;10.458;2023-04-24T04:24:35;11.20;99.90
7240;DHT22;3661;53.288;10.458;2023-04-24T04:27:10;11.20;99.90
7240;DHT22;3661;53.288;10.458;2023-04-24T04:29:43;11.20;99.90
7240;DHT22;3661;53.288;10.458;2023-04-24T04:32:15;11.10;99.90
7240;DHT22;3661;53.288;10.458;2023-04-24T04:34:47;11.10;99.90
7240;DHT22;3661;53.288;10.458;2023-04-24T04:37:23;11.10;99.90
7240;DHT22;3661;53.288;10.458;2023-04-24T04:39:56;11.10;99.90
7240;DHT22;3661;53.288;10.458;2023-04-24T04:42:30;11.00;99.90
7240;DHT22;3661;53.288;10.458;2023-04-24T04:45:03;11.10;99.90
7240;DHT22;3661;53.288;10.458;2023-04-24T04:47:36;11.10;99.90
7240;DHT22;3661;53.288;10.458;2023-04-24T04:50:09;11.10;99.90
7240;DHT22;3661;53.288;10.458;2023-04-24T04:52:44;11.10;99.90
7240;DHT22;3661;53.288;10.458;2023-04-24T04:55:16;11.10;99.90
7240;DHT22;3661;53.288;10.458;2023-04-24T04:57:50;11.10;99.90
7240;DHT22;3661;53.288;10.458;2023-04-24T05:00:23;11.20;99.90
7240;DHT22;3661;53.288;10.458;2023-04-24T05:02:55;11.30;99.90
7240;DHT22;3661;53.288;10.458;2023-04-24T05:05:34;11.40;99.90
7240;DHT22;3661;53.288;10.458;2023-04-24T05:08:20;11.50;99.90
7240;DHT22;3661;53.288;10.458;2023-04-24T05:10:52;11.50;99.90
7240;DHT22;3661;53.288;10.458;2023-04-24T05:13:25;11.60;99.90
7240;DHT22;3661;53.288;10.458;2023-04-24T05:15:57;11.60;99.90
7240;DHT22;3661;53.288;10.458;2023-04-24T05:18:29;11.60;99.90
7240;DHT22;3661;53.288;10.458;2023-04-24T05:21:02;11.60;99.90
7240;DHT22;3661;53.288;10.458;2023-04-24T05:23:34;11.50;99.90
7240;DHT22;3661;53.288;10.458;2023-04-24T05:26:06;11.50;99.90
7240;DHT22;3661;53.288;10.458;2023-04-24T05:28:40;11.50;99.90
7240;DHT22;3661;53.288;10.458;2023-04-24T05:31:13;11.40;99.90
7240;DHT22;3661;53.288;10.458;2023-04-24T05:33:45;11.50;99.90
7240;DHT22;3661;53.288;10.458;2023-04-24T05:36:18;11.40;99.90
7240;DHT22;3661;53.288;10.458;2023-04-24T05:39:04;11.40;99.90
7240;DHT22;3661;53.288;10.458;2023-04-24T05:41:40;11.40;99.90
7240;DHT22;3661;53.288;10.458;2023-04-24T05:44:16;11.40;99.90
7240;DHT22;3661;53.288;10.458;2023-04-24T05:46:48;11.40;99.90
7240;DHT22;3661;53.288;10.458;2023-04-24T05:49:22;11.40;99.90
7240;DHT22;3661;53.288;10.458;2023-04-24T05:52:04;11.50;99.90
7240;DHT22;3661;53.288;10.458;2023-04-24T05:54:39;11.40;99.90
7240;DHT22;3661;53.288;10.458;2023-04-24T05:57:11;11.50;99.90
7240;DHT22;3661;53.288;10.458;2023-04-24T06:00:01;11.50;99.90
7240;DHT22;3661;53.288;10.458;2023-04-24T06:02:34;11.50;99.90
7240;DHT22;3661;53.288;10.458;2023-04-24T06:05:07;11.50;99.90
7240;DHT22;3661;53.288;10.458;2023-04-24T06:07:41;11.50;99.90
7240;DHT22;3661;53.288;10.458;2023-04-24T06:10:18;11.50;99.90
7240;DHT22;3661;53.288;10.458;2023-04-24T06:12:50;11.50;99.90
7240;DHT22;3661;53.288;10.458;2023-04-24T06:15:32;11.60;99.90
7240;DHT22;3661;53.288;10.458;2023-04-24T06:18:05;11.60;99.90
7240;DHT22;3661;53.288;10.458;2023-04-24T06:27:15;11.80;99.90
7240;DHT22;3661;53.288;10.458;2023-04-24T06:30:20;11.90;99.90
7240;DHT22;3661;53.288;10.458;2023-04-24T06:32:59;11.90;99.90
7240;DHT22;3661;53.288;10.458;2023-04-24T06:35:33;12.00;99.90
7240;DHT22;3661;53.288;10.458;2023-04-24T06:38:09;12.00;99.90
7240;DHT22;3661;53.288;10.458;2023-04-24T06:40:45;12.10;99.90
7240;DHT22;3661;53.288;10.458;2023-04-24T06:43:30;12.10;99.90
7240;DHT22;3661;53.288;10.458;2023-04-24T06:46:04;12.20;99.90
7240;DHT22;3661;53.288;10.458;2023-04-24T06:48:41;12.30;99.90
7240;DHT22;3661;53.288;10.458;2023-04-24T06:51:15;12.30;99.90
7240;DHT22;3661;53.288;10.458;2023-04-24T06:53:48;12.40;99.90
7240;DHT22;3661;53.288;10.458;2023-04-24T06:56:22;12.50;99.90
7240;DHT22;3661;53.288;10.458;2023-04-24T06:58:56;12.50;99.90
7240;DHT22;3661;53.288;10.458;2023-04-24T07:01:40;12.60;99.90
7240;DHT22;3661;53.288;10.458;2023-04-24T07:04:30;12.70;99.90
7240;DHT22;3661;53.288;10.458;2023-04-24T07:07:13;12.80;99.90
7240;DHT22;3661;53.288;10.458;2023-04-24T07:09:50;12.90;99.90
7240;DHT22;3661;53.288;10.458;2023-04-24T07:12:22;12.90;99.90
7240;DHT22;3661;53.288;10.458;2023-04-24T07:14:57;13.00;99.90
7240;DHT22;3661;53.288;10.458;2023-04-24T07:17:31;13.10;99.90
7240;DHT22;3661;53.288;10.458;2023-04-24T07:20:13;13.10;99.90
7240;DHT22;3661;53.288;10.458;2023-04-24T07:22:47;13.10;99.90
7240;DHT22;3661;53.288;10.458;2023-04-24T07:25:21;13.20;99.90
7240;DHT22;3661;53.288;10.458;2023-04-24T07:27:56;13.30;99.90
7240;DHT22;3661;53.288;10.458;2023-04-24T07:30:29;13.30;99.90
7240;DHT22;3661;53.288;10.458;2023-04-24T07:33:03;13.40;99.90
7240;DHT22;3661;53.288;10.458;2023-04-24T07:35:37;13.60;99.90
7240;DHT22;3661;53.288;10.458;2023-04-24T07:38:09;13.60;99.90
7240;DHT22;3661;53.288;10.458;2023-04-24T07:40:44;13.70;99.90
7240;DHT22;3661;53.288;10.458;2023-04-24T07:43:17;13.80;99.90
7240;DHT22;3661;53.288;10.458;2023-04-24T07:45:51;13.90;99.90
7240;DHT22;3661;53.288;10.458;2023-04-24T07:48:23;13.90;99.90
7240;DHT22;3661;53.288;10.458;2023-04-24T07:50:59;13.90;99.90
7240;DHT22;3661;53.288;10.458;2023-04-24T07:53:32;14.00;99.90
7240;DHT22;3661;53.288;10.458;2023-04-24T07:56:05;14.00;99.90
7240;DHT22;3661;53.288;10.458;2023-04-24T07:58:43;14.10;99.90
7240;DHT22;3661;53.288;10.458;2023-04-24T08:01:17;14.20;99.90
7240;DHT22;3661;53.288;10.458;2023-04-24T08:03:51;14.30;99.90
7240;DHT22;3661;53.288;10.458;2023-04-24T08:06:26;14.40;99.90
7240;DHT22;3661;53.288;10.458;2023-04-24T08:09:01;14.40;99.90
7240;DHT22;3661;53.288;10.458;2023-04-24T08:11:33;14.50;99.90
7240;DHT22;3661;53.288;10.458;2023-04-24T08:14:06;14.60;99.90
7240;DHT22;3661;53.288;10.458;2023-04-24T08:16:40;14.70;99.90
7240;DHT22;3661;53.288;10.458;2023-04-24T08:19:20;14.80;99.90
7240;DHT22;3661;53.288;10.458;2023-04-24T08:21:56;14.90;99.90
7240;DHT22;3661;53.288;10.458;2023-04-24T08:24:29;14.90;99.90
7240;DHT22;3661;53.288;10.458;2023-04-24T08:27:08;15.10;99.90
7240;DHT22;3661;53.288;10.458;2023-04-24T08:29:42;15.20;99.90
7240;DHT22;3661;53.288;10.458;2023-04-24T08:32:15;15.30;99.90
7240;DHT22;3661;53.288;10.458;2023-04-24T08:34:47;15.40;99.90
7240;DHT22;3661;53.288;10.458;2023-04-24T08:37:21;15.50;99.90
7240;DHT22;3661;53.288;10.458;2023-04-24T08:39:53;15.50;99.90
7240;DHT22;3661;53.288;10.458;2023-04-24T08:42:33;15.60;99.90
7240;DHT22;3661;53.288;10.458;2023-04-24T08:45:13;15.70;99.90
7240;DHT22;3661;53.288;10.458;2023-04-24T08:47:47;15.80;99.90
7240;DHT22;3661;53.288;10.458;2023-04-24T08:50:20;15.80;99.90
7240;DHT22;3661;53.288;10.458;2023-04-24T08:52:58;16.00;99.90
7240;DHT22;3661;53.288;10.458;2023-04-24T08:55:34;16.10;99.90
7240;DHT22;3661;53.288;10.458;2023-04-24T08:58:09;16.20;99.90
7240;DHT22;3661;53.288;10.458;2023-04-24T09:00:46;16.30;99.90
7240;DHT22;3661;53.288;10.458;2023-04-24T09:03:21;16.30;99.90
7240;DHT22;3661;53.288;10.458;2023-04-24T09:05:54;16.40;99.90
7240;DHT22;3661;53.288;10.458;2023-04-24T09:08:28;16.40;99.90
7240;DHT22;3661;53.288;10.458;2023-04-24T09:11:04;16.40;99.90
7240;DHT22;3661;53.288;10.458;2023-04-24T09:13:38;16.40;99.90
7240;DHT22;3661;53.288;10.458;2023-04-24T09:16:15;16.50;99.90
7240;DHT22;3661;53.288;10.458;2023-04-24T09:18:47;16.50;99.90
7240;DHT22;3661;53.288;10.458;2023-04-24T09:21:21;16.60;99.90
7240;DHT22;3661;53.288;10.458;2023-04-24T09:24:02;16.60;99.90
7240;DHT22;3661;53.288;10.458;2023-04-24T09:26:36;16.60;99.70
7240;DHT22;3661;53.288;10.458;2023-04-24T09:29:14;16.60;99.60
7240;DHT22;3661;53.288;10.458;2023-04-24T09:31:47;16.60;99.20
7240;DHT22;3661;53.288;10.458;2023-04-24T09:34:24;16.50;99.00
7240;DHT22;3661;53.288;10.458;2023-04-24T09:36:57;16.40;99.00
7240;DHT22;3661;53.288;10.458;2023-04-24T09:39:31;16.40;98.90
7240;DHT22;3661;53.288;10.458;2023-04-24T09:42:03;16.30;98.80
7240;DHT22;3661;53.288;10.458;2023-04-24T09:44:36;16.30;99.00
7240;DHT22;3661;53.288;10.458;2023-04-24T09:47:09;16.20;99.10
7240;DHT22;3661;53.288;10.458;2023-04-24T09:49:41;16.20;99.20
7240;DHT22;3661;53.288;10.458;2023-04-24T09:52:15;16.20;99.10
7240;DHT22;3661;53.288;10.458;2023-04-24T09:54:54;16.20;98.90
7240;DHT22;3661;53.288;10.458;2023-04-24T09:57:26;16.20;98.80
7240;DHT22;3661;53.288;10.458;2023-04-24T09:59:58;16.20;98.80
7240;DHT22;3661;53.288;10.458;2023-04-24T10:02:32;16.20;98.50
7240;DHT22;3661;53.288;10.458;2023-04-24T10:05:04;16.20;97.90
7240;DHT22;3661;53.288;10.458;2023-04-24T10:07:37;16.20;97.60
7240;DHT22;3661;53.288;10.458;2023-04-24T10:10:11;16.10;97.50
7240;DHT22;3661;53.288;10.458;2023-04-24T10:12:44;16.10;97.60
7240;DHT22;3661;53.288;10.458;2023-04-24T10:15:16;16.10;97.60
7240;DHT22;3661;53.288;10.458;2023-04-24T10:17:52;16.10;97.70
7240;DHT22;3661;53.288;10.458;2023-04-24T10:20:28;16.20;97.90
7240;DHT22;3661;53.288;10.458;2023-04-24T10:23:02;16.20;97.90
7240;DHT22;3661;53.288;10.458;2023-04-24T10:25:36;16.30;97.70
7240;DHT22;3661;53.288;10.458;2023-04-24T10:28:10;16.40;97.50
7240;DHT22;3661;53.288;10.458;2023-04-24T10:30:43;16.40;97.20
7240;DHT22;3661;53.288;10.458;2023-04-24T10:33:17;16.50;97.20
7240;DHT22;3661;53.288;10.458;2023-04-24T10:35:51;16.60;97.10
7240;DHT22;3661;53.288;10.458;2023-04-24T10:38:25;16.70;96.90
7240;DHT22;3661;53.288;10.458;2023-04-24T10:41:11;16.80;96.90
7240;DHT22;3661;53.288;10.458;2023-04-24T10:44:04;16.90;96.70
7240;DHT22;3661;53.288;10.458;2023-04-24T10:46:37;17.00;96.50
7240;DHT22;3661;53.288;10.458;2023-04-24T10:49:10;17.10;96.50
7240;DHT22;3661;53.288;10.458;2023-04-24T10:51:48;17.20;96.50
7240;DHT22;3661;53.288;10.458;2023-04-24T10:54:25;17.30;96.00
7240;DHT22;3661;53.288;10.458;2023-04-24T10:57:28;17.30;95.80
7240;DHT22;3661;53.288;10.458;2023-04-24T11:00:13;17.40;95.50
7240;DHT22;3661;53.288;10.458;2023-04-24T11:02:48;17.50;95.30
7240;DHT22;3661;53.288;10.458;2023-04-24T11:05:49;17.40;95.10
7240;DHT22;3661;53.288;10.458;2023-04-24T11:08:25;17.40;95.00
7240;DHT22;3661;53.288;10.458;2023-04-24T11:10:59;17.40;95.20
7240;DHT22;3661;53.288;10.458;2023-04-24T11:14:05;17.40;95.40
7240;DHT22;3661;53.288;10.458;2023-04-24T11:16:45;17.40;95.20
7240;DHT22;3661;53.288;10.458;2023-04-24T11:19:24;17.50;95.20
7240;DHT22;3661;53.288;10.458;2023-04-24T11:22:13;17.70;95.20
7240;DHT22;3661;53.288;10.458;2023-04-24T11:24:50;17.80;94.90
7240;DHT22;3661;53.288;10.458;2023-04-24T11:27:30;17.80;94.30
7240;DHT22;3661;53.288;10.458;2023-04-24T11:30:17;17.80;94.00
7240;DHT22;3661;53.288;10.458;2023-04-24T11:32:54;17.80;93.70
7240;DHT22;3661;53.288;10.458;2023-04-24T11:35:26;17.80;93.40
7240;DHT22;3661;53.288;10.458;2023-04-24T11:38:01;17.70;93.30
7240;DHT22;3661;53.288;10.458;2023-04-24T11:40:37;17.60;92.90
7240;DHT22;3661;53.288;10.458;2023-04-24T11:43:09;17.60;92.70
7240;DHT22;3661;53.288;10.458;2023-04-24T11:45:48;17.50;92.50
7240;DHT22;3661;53.288;10.458;2023-04-24T11:48:20;17.50;92.30
7240;DHT22;3661;53.288;10.458;2023-04-24T11:50:53;17.50;92.10
7240;DHT22;3661;53.288;10.458;2023-04-24T11:53:25;17.40;92.10
7240;DHT22;3661;53.288;10.458;2023-04-24T11:55:58;17.40;92.10
7240;DHT22;3661;53.288;10.458;2023-04-24T11:58:35;17.40;92.30
7240;DHT22;3661;53.288;10.458;2023-04-24T12:01:11;17.40;92.40
7240;DHT22;3661;53.288;10.458;2023-04-24T12:03:48;17.40;92.40
7240;DHT22;3661;53.288;10.458;2023-04-24T12:06:21;17.40;92.40
7240;DHT22;3661;53.288;10.458;2023-04-24T12:08:53;17.40;92.50
7240;DHT22;3661;53.288;10.458;2023-04-24T12:11:28;17.40;92.60
7240;DHT22;3661;53.288;10.458;2023-04-24T12:14:10;17.30;92.60
7240;DHT22;3661;53.288;10.458;2023-04-24T12:16:50;17.30;92.60
7240;DHT22;3661;53.288;10.458;2023-04-24T12:19:23;17.20;92.70
7240;DHT22;3661;53.288;10.458;2023-04-24T12:22:07;17.20;92.80
7240;DHT22;3661;53.288;10.458;2023-04-24T12:24:58;17.10;93.00
7240;DHT22;3661;53.288;10.458;2023-04-24T12:27:31;17.00;93.10
7240;DHT22;3661;53.288;10.458;2023-04-24T12:30:12;17.00;93.10
7240;DHT22;3661;53.288;10.458;2023-04-24T12:32:49;17.00;93.00
7240;DHT22;3661;53.288;10.458;2023-04-24T12:35:30;17.00;93.20
7240;DHT22;3661;53.288;10.458;2023-04-24T12:38:09;17.00;93.30
7240;DHT22;3661;53.288;10.458;2023-04-24T12:40:42;17.00;93.30
7240;DHT22;3661;53.288;10.458;2023-04-24T12:43:16;17.00;93.40
7240;DHT22;3661;53.288;10.458;2023-04-24T12:45:48;17.00;93.40
7240;DHT22;3661;53.288;10.458;2023-04-24T12:48:25;17.00;93.50
7240;DHT22;3661;53.288;10.458;2023-04-24T12:50:57;17.00;93.50
7240;DHT22;3661;53.288;10.458;2023-04-24T12:53:31;17.10;93.50
7240;DHT22;3661;53.288;10.458;2023-04-24T12:56:04;17.20;93.50
7240;DHT22;3661;53.288;10.458;2023-04-24T12:58:37;17.20;93.40
7240;DHT22;3661;53.288;10.458;2023-04-24T13:01:10;17.20;93.40
7240;DHT22;3661;53.288;10.458;2023-04-24T13:03:46;17.20;93.20
7240;DHT22;3661;53.288;10.458;2023-04-24T13:06:18;17.20;93.10
7240;DHT22;3661;53.288;10.458;2023-04-24T13:08:51;17.20;93.10
7240;DHT22;3661;53.288;10.458;2023-04-24T13:11:25;17.10;92.80
7240;DHT22;3661;53.288;10.458;2023-04-24T13:13:57;17.00;92.70
7240;DHT22;3661;53.288;10.458;2023-04-24T13:16:29;16.90;92.80
7240;DHT22;3661;53.288;10.458;2023-04-24T13:19:03;16.80;92.90
7240;DHT22;3661;53.288;10.458;2023-04-24T13:21:35;16.70;92.90
7240;DHT22;3661;53.288;10.458;2023-04-24T13:24:07;16.60;92.90
7240;DHT22;3661;53.288;10.458;2023-04-24T13:26:40;16.40;93.00
7240;DHT22;3661;53.288;10.458;2023-04-24T13:29:14;16.30;93.10
7240;DHT22;3661;53.288;10.458;2023-04-24T13:31:47;16.30;93.10
7240;DHT22;3661;53.288;10.458;2023-04-24T13:34:21;16.20;93.10
7240;DHT22;3661;53.288;10.458;2023-04-24T13:36:56;16.10;93.20
7240;DHT22;3661;53.288;10.458;2023-04-24T13:39:29;16.00;93.40
7240;DHT22;3661;53.288;10.458;2023-04-24T13:42:04;15.90;93.60
7240;DHT22;3661;53.288;10.458;2023-04-24T13:44:37;15.80;93.70
7240;DHT22;3661;53.288;10.458;2023-04-24T13:47:09;15.70;93.70
7240;DHT22;3661;53.288;10.458;2023-04-24T13:49:45;15.70;93.90
7240;DHT22;3661;53.288;10.458;2023-04-24T13:52:19;15.60;94.00
7240;DHT22;3661;53.288;10.458;2023-04-24T13:54:52;15.60;94.10
7240;DHT22;3661;53.288;10.458;2023-04-24T13:57:26;15.60;94.50
7240;DHT22;3661;53.288;10.458;2023-04-24T13:59:59;15.70;94.30
7240;DHT22;3661;53.288;10.458;2023-04-24T14:02:34;15.70;94.30
7240;DHT22;3661;53.288;10.458;2023-04-24T14:05:08;15.80;94.40
7240;DHT22;3661;53.288;10.458;2023-04-24T14:07:41;15.90;94.50
7240;DHT22;3661;53.288;10.458;2023-04-24T14:10:14;16.00;94.40
7240;DHT22;3661;53.288;10.458;2023-04-24T14:12:46;16.00;94.40
7240;DHT22;3661;53.288;10.458;2023-04-24T14:15:21;16.10;94.40
7240;DHT22;3661;53.288;10.458;2023-04-24T14:17:54;16.10;94.30
7240;DHT22;3661;53.288;10.458;2023-04-24T14:20:28;16.10;94.10
7240;DHT22;3661;53.288;10.458;2023-04-24T14:23:01;16.10;94.00
7240;DHT22;3661;53.288;10.458;2023-04-24T14:25:34;16.00;93.90
7240;DHT22;3661;53.288;10.458;2023-04-24T14:28:06;15.90;93.90
7240;DHT22;3661;53.288;10.458;2023-04-24T14:30:38;15.90;93.90
7240;DHT22;3661;53.288;10.458;2023-04-24T14:33:11;15.80;94.10
7240;DHT22;3661;53.288;10.458;2023-04-24T14:35:46;15.70;94.20
7240;DHT22;3661;53.288;10.458;2023-04-24T14:38:18;15.70;94.30
7240;DHT22;3661;53.288;10.458;2023-04-24T14:40:50;15.60;94.40
7240;DHT22;3661;53.288;10.458;2023-04-24T14:43:22;15.50;94.60
7240;DHT22;3661;53.288;10.458;2023-04-24T14:45:58;15.50;94.80
7240;DHT22;3661;53.288;10.458;2023-04-24T14:48:30;15.50;95.00
7240;DHT22;3661;53.288;10.458;2023-04-24T14:51:04;15.40;95.10
7240;DHT22;3661;53.288;10.458;2023-04-24T14:53:37;15.30;95.10
7240;DHT22;3661;53.288;10.458;2023-04-24T14:56:13;15.30;95.20
7240;DHT22;3661;53.288;10.458;2023-04-24T14:58:48;15.30;95.30
7240;DHT22;3661;53.288;10.458;2023-04-24T15:01:20;15.20;95.40
7240;DHT22;3661;53.288;10.458;2023-04-24T15:03:53;15.10;95.40
7240;DHT22;3661;53.288;10.458;2023-04-24T15:06:26;15.10;95.60
7240;DHT22;3661;53.288;10.458;2023-04-24T15:08:59;15.00;95.50
7240;DHT22;3661;53.288;10.458;2023-04-24T15:11:32;14.90;95.70
7240;DHT22;3661;53.288;10.458;2023-04-24T15:14:04;14.80;95.90
7240;DHT22;3661;53.288;10.458;2023-04-24T15:16:37;14.70;96.20
7240;DHT22;3661;53.288;10.458;2023-04-24T15:19:11;14.60;96.60
7240;DHT22;3661;53.288;10.458;2023-04-24T15:21:44;14.50;97.10
7240;DHT22;3661;53.288;10.458;2023-04-24T15:24:17;14.40;97.70
7240;DHT22;3661;53.288;10.458;2023-04-24T15:26:49;14.30;98.30
7240;DHT22;3661;53.288;10.458;2023-04-24T15:29:21;14.20;98.80
7240;DHT22;3661;53.288;10.458;2023-04-24T15:31:53;14.20;99.30
7240;DHT22;3661;53.288;10.458;2023-04-24T15:34:27;14.10;99.90
7240;DHT22;3661;53.288;10.458;2023-04-24T15:37:01;14.00;99.90
7240;DHT22;3661;53.288;10.458;2023-04-24T15:39:33;13.90;99.90
7240;DHT22;3661;53.288;10.458;2023-04-24T15:42:05;13.80;99.90
7240;DHT22;3661;53.288;10.458;2023-04-24T15:44:37;13.80;99.90
7240;DHT22;3661;53.288;10.458;2023-04-24T15:47:09;13.70;99.90
7240;DHT22;3661;53.288;10.458;2023-04-24T15:49:44;13.60;99.90
7240;DHT22;3661;53.288;10.458;2023-04-24T15:52:17;13.50;99.90
7240;DHT22;3661;53.288;10.458;2023-04-24T15:54:49;13.40;99.90
7240;DHT22;3661;53.288;10.458;2023-04-24T15:57:21;13.40;99.90
7240;DHT22;3661;53.288;10.458;2023-04-24T15:59:54;13.30;99.90
7240;DHT22;3661;53.288;10.458;2023-04-24T16:02:29;13.20;99.90
7240;DHT22;3661;53.288;10.458;2023-04-24T16:05:01;13.10;99.90
7240;DHT22;3661;53.288;10.458;2023-04-24T16:07:36;13.10;99.90
7240;DHT22;3661;53.288;10.458;2023-04-24T16:10:09;13.00;99.90
7240;DHT22;3661;53.288;10.458;2023-04-24T16:12:45;12.90;99.90
7240;DHT22;3661;53.288;10.458;2023-04-24T16:15:17;12.70;99.90
7240;DHT22;3661;53.288;10.458;2023-04-24T16:17:51;12.60;99.90
7240;DHT22;3661;53.288;10.458;2023-04-24T16:20:23;12.50;99.90
7240;DHT22;3661;53.288;10.458;2023-04-24T16:23:00;12.30;99.90
7240;DHT22;3661;53.288;10.458;2023-04-24T16:25:32;12.20;99.90
7240;DHT22;3661;53.288;10.458;2023-04-24T16:28:05;12.10;99.90
7240;DHT22;3661;53.288;10.458;2023-04-24T16:30:37;11.90;99.90
7240;DHT22;3661;53.288;10.458;2023-04-24T16:33:10;11.80;99.90
7240;DHT22;3661;53.288;10.458;2023-04-24T16:35:42;11.70;99.90
7240;DHT22;3661;53.288;10.458;2023-04-24T16:38:17;11.60;99.90